Hub


Voltar

 INFORMAÇÕES METEOROLÓGICAS

METAR FOR PABV


ADDS - METARS form results

(1901 UTC 23 April 2019)
Data provider http://aviationweather.gov/metar/data/
 
METAR text: PABV 231856Z AUTO 00000KT 10SM OVC035 01/M07 A2979 RMK AO2 SLP095 T00111067 FZRANO
Conditions at: PABV (BIRCHWOOD , AK, US) observed 1856 UTC 23 April 2019
Temperature: 1.1°C (34°F)
Dewpoint: -6.7°C (20°F) [RH = 56%]
Pressure (altimeter): 29.79 inches Hg (1008.9 mb)
[Sea-level pressure: 1009.5 mb]
Winds: calm
Visibility: 10 or more miles (16+ km)
Ceiling: 3500 feet AGL
Clouds: overcast cloud deck at 3500 feet AGL
Weather: automated observation with no human augmentation;
there may or may not be significant weather present at this time


 MAPA DO AEROPORTO


 INFORMAÇÕES DA PISTA

Pista 01L Tamanho da pista 3931 ft Largura da pista 100 ft
Elevação da pista 96 ft Ranhura da pista 0 ft Proa da pista 39
Pista 19R Tamanho da pista 3931 ft Largura da pista 100 ft
Elevação da pista 81 ft Ranhura da pista 0 ft Proa da pista 219
Pista 01R Tamanho da pista 2200 ft Largura da pista 50 ft
Elevação da pista 0 ft Ranhura da pista 0 ft Proa da pista 24
Pista 19L Tamanho da pista 2200 ft Largura da pista 50 ft
Elevação da pista 0 ft Ranhura da pista 0 ft Proa da pista 204

 FREQUÊNCIAS DO AEROPORTO

Tipo AWOS Nome AWOS 3 Frequência 135.55 MHZ
Tipo CNTR Nome ANCHORAGE Frequência 132.3 MHZ
Tipo UNIC Nome CTAF/UNICO Frequência 123 MHZ

 AUXÍLIOS DE NAVEGAÇÃO PRÓXIMOS AO AEROPORTO